createdAt,value
2022-11-26T00:02:35.117Z,9.68
2022-11-26T00:07:37.448Z,8.50
2022-11-26T00:12:39.644Z,9.00
2022-11-26T00:17:41.881Z,8.50
2022-11-26T00:22:51.099Z,8.88
2022-11-26T00:27:56.199Z,10.32
2022-11-26T00:32:58.557Z,9.07
2022-11-26T00:38:00.816Z,11.48
2022-11-26T00:43:02.900Z,12.20
2022-11-26T00:48:05.313Z,9.73
2022-11-26T00:53:10.755Z,8.35
2022-11-26T00:58:30.702Z,9.27
2022-11-26T01:03:32.881Z,11.88
2022-11-26T01:08:36.392Z,7.43
2022-11-26T01:13:38.667Z,7.03
2022-11-26T01:18:40.696Z,6.05
2022-11-26T01:23:42.922Z,8.30
2022-11-26T01:28:45.644Z,7.72
2022-11-26T01:33:47.954Z,11.05
2022-11-26T01:38:59.759Z,9.82
2022-11-26T01:44:04.753Z,11.10
2022-11-26T01:49:18.534Z,9.32
2022-11-26T01:54:21.323Z,11.13
2022-11-26T01:59:33.517Z,7.70
2022-11-26T02:04:41.512Z,10.95
2022-11-26T02:09:44.465Z,11.07
2022-11-26T02:14:46.992Z,11.40
2022-11-26T02:19:58.036Z,9.25
2022-11-26T02:25:43.286Z,7.40
2022-11-26T02:30:50.422Z,9.40
2022-11-26T02:36:09.961Z,9.23
2022-11-26T02:41:12.233Z,12.77
2022-11-26T02:46:19.821Z,9.43
2022-11-26T02:51:29.572Z,8.50
2022-11-26T02:56:36.287Z,13.80
2022-11-26T03:01:44.675Z,12.05
2022-11-26T03:06:47.530Z,9.10
2022-11-26T03:11:50.336Z,9.10
2022-11-26T03:16:52.497Z,8.52
2022-11-26T03:21:54.607Z,7.93
2022-11-26T03:26:56.863Z,8.80
2022-11-26T03:31:59.768Z,7.30
2022-11-26T03:37:02.291Z,9.20
2022-11-26T03:42:04.583Z,10.80
2022-11-26T03:47:06.805Z,7.00
2022-11-26T03:52:09.066Z,8.35
2022-11-26T03:57:11.362Z,7.88
2022-11-26T04:02:13.447Z,5.63
2022-11-26T04:07:15.693Z,6.70
2022-11-26T04:12:18.100Z,11.30
2022-11-26T04:17:20.383Z,7.85
2022-11-26T04:22:22.658Z,6.28
2022-11-26T04:27:24.682Z,7.75
2022-11-26T04:32:26.955Z,9.77
2022-11-26T04:37:29.099Z,8.60
2022-11-26T04:42:31.572Z,9.57
2022-11-26T04:47:33.735Z,14.82
2022-11-26T04:52:35.871Z,10.98
2022-11-26T04:57:38.119Z,8.25
2022-11-26T05:02:40.379Z,12.68
2022-11-26T05:07:42.519Z,9.25
2022-11-26T05:12:44.593Z,9.70
2022-11-26T05:17:46.822Z,12.32
2022-11-26T05:22:49.007Z,10.43
2022-11-26T05:27:51.191Z,10.75
2022-11-26T05:32:53.298Z,12.20
2022-11-26T05:37:55.416Z,11.13
2022-11-26T05:42:57.719Z,20.73
2022-11-26T05:47:59.965Z,11.68
2022-11-26T05:53:02.415Z,11.32
2022-11-26T05:58:04.560Z,13.10
2022-11-26T06:03:06.766Z,12.82
2022-11-26T06:08:09.124Z,15.13
2022-11-26T06:13:11.204Z,30.17
2022-11-26T06:18:13.329Z,16.98
2022-11-26T06:23:15.530Z,13.38
2022-11-26T06:28:17.749Z,17.20
2022-11-26T06:33:23.294Z,16.80
2022-11-26T06:38:25.466Z,15.15
2022-11-26T06:43:27.818Z,12.82
2022-11-26T06:48:30.860Z,9.98
2022-11-26T06:53:33.652Z,8.90
2022-11-26T06:58:35.837Z,17.08
2022-11-26T07:03:38.564Z,24.27
2022-11-26T07:08:40.700Z,13.93
2022-11-26T07:13:43.795Z,26.88
2022-11-26T07:18:51.330Z,11.65
2022-11-26T07:23:54.337Z,12.95
2022-11-26T07:28:56.665Z,9.65
2022-11-26T07:33:58.775Z,4.45
2022-11-26T07:39:02.871Z,3.05
2022-11-26T07:44:05.226Z,3.92
2022-11-26T07:49:07.583Z,3.80
2022-11-26T07:54:10.235Z,3.22
2022-11-26T07:59:12.639Z,3.78
2022-11-26T08:04:14.857Z,2.58
2022-11-26T08:09:17.075Z,2.53
2022-11-26T08:14:19.285Z,7.10
2022-11-26T08:19:21.367Z,4.25
2022-11-26T08:24:24.353Z,2.30
2022-11-26T08:29:26.746Z,2.53
2022-11-26T08:34:28.863Z,5.13
2022-11-26T08:39:30.867Z,2.50
2022-11-26T08:44:33.069Z,2.13
2022-11-26T08:49:35.315Z,2.40
2022-11-26T08:54:42.035Z,2.50
2022-11-26T08:59:46.686Z,7.50
2022-11-26T09:04:49.154Z,11.63
2022-11-26T09:09:51.364Z,11.23
2022-11-26T09:14:53.854Z,54.42
2022-11-26T09:19:57.399Z,44.40
2022-11-26T09:24:59.785Z,26.83
2022-11-26T09:30:02.860Z,19.73
2022-11-26T09:35:05.418Z,9.85
2022-11-26T09:40:10.274Z,4.72
2022-11-26T09:45:39.962Z,16.70
2022-11-26T09:50:43.953Z,5.72
2022-11-26T09:55:50.000Z,19.45
2022-11-26T10:00:54.724Z,2.95
2022-11-26T10:06:06.493Z,10.05
2022-11-26T10:11:19.618Z,7.53
2022-11-26T10:16:30.150Z,8.02
2022-11-26T10:21:58.732Z,13.68
2022-11-26T10:27:11.118Z,2.97
2022-11-26T10:32:26.627Z,3.08
2022-11-26T10:37:29.929Z,8.15
2022-11-26T10:42:44.805Z,15.38
2022-11-26T10:47:47.315Z,5.03
2022-11-26T10:52:51.854Z,5.95
2022-11-26T10:57:58.204Z,3.80
2022-11-26T11:03:02.287Z,6.18
2022-11-26T11:08:04.770Z,22.88
2022-11-26T11:13:12.377Z,3.75
2022-11-26T11:18:14.555Z,22.05
2022-11-26T11:23:16.567Z,4.68
2022-11-26T11:28:25.467Z,8.75
2022-11-26T11:33:29.951Z,8.68
2022-11-26T11:38:45.824Z,9.00
2022-11-26T11:43:48.684Z,19.17
2022-11-26T11:49:04.486Z,5.75
2022-11-26T11:54:31.518Z,6.05
2022-11-26T12:00:12.384Z,4.55
2022-11-26T12:05:36.313Z,7.13
2022-11-26T12:10:41.785Z,7.32
2022-11-26T12:15:55.790Z,9.25
2022-11-26T12:21:08.650Z,3.38
2022-11-26T12:26:21.058Z,22.67
2022-11-26T12:31:39.197Z,19.02
2022-11-26T12:37:00.634Z,19.92
2022-11-26T12:42:17.183Z,17.25
2022-11-26T12:47:27.090Z,24.85
2022-11-26T12:52:54.546Z,27.67
2022-11-26T12:58:16.093Z,13.88
2022-11-26T13:03:24.096Z,8.77
2022-11-26T13:08:48.931Z,12.85
2022-11-26T13:14:10.437Z,21.05
2022-11-26T13:19:18.542Z,26.23
2022-11-26T13:24:20.780Z,10.45
2022-11-26T13:29:37.790Z,8.55
2022-11-26T13:34:49.180Z,7.82
2022-11-26T13:44:53.389Z,9.15
2022-11-26T13:50:20.175Z,7.43
2022-11-26T13:55:22.339Z,10.45
2022-11-26T14:00:31.039Z,10.45
2022-11-26T14:06:03.644Z,8.60
2022-11-26T14:11:09.507Z,14.57
2022-11-26T14:16:11.750Z,16.80
2022-11-26T14:21:15.678Z,13.80
2022-11-26T14:26:40.259Z,31.08
2022-11-26T14:31:48.353Z,9.65
2022-11-26T14:37:01.326Z,59.47
2022-11-26T14:42:06.388Z,14.65
2022-11-26T14:47:20.200Z,12.75
2022-11-26T14:52:25.351Z,11.98
2022-11-26T14:57:33.113Z,14.45
2022-11-26T15:02:40.330Z,14.13
2022-11-26T15:07:43.244Z,12.40
2022-11-26T15:12:47.960Z,11.13
2022-11-26T15:18:05.814Z,14.88
2022-11-26T15:23:18.586Z,24.05
2022-11-26T15:28:23.104Z,19.20
2022-11-26T15:33:28.182Z,28.17
2022-11-26T15:38:33.115Z,140.70
2022-11-26T15:43:47.008Z,105.82
2022-11-26T15:48:59.325Z,42.92
2022-11-26T15:54:02.887Z,44.58
2022-11-26T15:59:16.786Z,78.38
2022-11-26T16:04:37.658Z,25.33
2022-11-26T16:14:43.529Z,26.58
2022-11-26T16:19:59.465Z,31.48
2022-11-26T16:25:06.252Z,21.52
2022-11-26T16:30:15.919Z,21.60
2022-11-26T16:35:44.327Z,14.20
2022-11-26T16:40:40.320Z,22.08
2022-11-26T16:45:42.684Z,25.70
2022-11-26T16:50:44.945Z,43.45
2022-11-26T16:55:47.432Z,36.70
2022-11-26T17:00:51.324Z,27.92
2022-11-26T17:05:56.707Z,32.25
2022-11-26T17:10:58.959Z,29.83
2022-11-26T17:16:02.489Z,55.75
2022-11-26T17:21:04.516Z,19.10
2022-11-26T17:26:21.438Z,34.78
2022-11-26T17:31:23.843Z,23.30
2022-11-26T17:36:26.333Z,27.30
2022-11-26T17:41:28.379Z,29.67
2022-11-26T17:46:35.703Z,26.77
2022-11-26T17:51:45.181Z,37.70
2022-11-26T17:56:47.251Z,22.27
2022-11-26T18:01:49.582Z,29.45
2022-11-26T18:07:10.553Z,23.80
2022-11-26T18:17:33.910Z,39.73
2022-11-26T18:22:36.302Z,37.22
2022-11-26T18:27:38.372Z,25.35
2022-11-26T18:32:40.931Z,27.60
2022-11-26T18:37:43.269Z,31.00
2022-11-26T18:42:45.645Z,27.25
2022-11-26T18:47:47.824Z,30.08
2022-11-26T18:52:49.842Z,58.55
2022-11-26T18:57:52.117Z,30.55
2022-11-26T19:02:54.464Z,27.40
2022-11-26T19:07:56.729Z,34.95
2022-11-26T19:12:59.097Z,25.80
2022-11-26T19:18:01.139Z,27.08
2022-11-26T19:23:03.280Z,53.35
2022-11-26T19:28:05.544Z,24.85
2022-11-26T19:33:08.070Z,21.05
2022-11-26T19:38:10.338Z,57.17
2022-11-26T19:43:12.526Z,23.27
2022-11-26T19:48:15.026Z,20.00
2022-11-26T19:53:17.207Z,23.23
2022-11-26T19:58:19.412Z,21.40
2022-11-26T20:03:23.015Z,14.07
2022-11-26T20:08:25.264Z,15.52
2022-11-26T20:13:27.438Z,14.10
2022-11-26T20:18:29.467Z,40.30
2022-11-26T20:23:32.165Z,24.13
2022-11-26T20:28:34.267Z,21.23
2022-11-26T20:33:36.525Z,24.88
2022-11-26T20:38:40.423Z,28.88
2022-11-26T20:43:43.430Z,23.60
2022-11-26T20:48:45.724Z,27.42
2022-11-26T20:53:50.320Z,24.17
2022-11-26T20:58:53.160Z,20.67
2022-11-26T21:03:55.978Z,27.35
2022-11-26T21:09:03.281Z,29.45
2022-11-26T21:14:10.651Z,22.10
2022-11-26T21:19:15.946Z,32.43
2022-11-26T21:24:18.288Z,23.77
2022-11-26T21:29:20.699Z,28.60
2022-11-26T21:34:22.774Z,19.40
2022-11-26T21:39:27.197Z,20.60
2022-11-26T21:44:29.279Z,21.42
2022-11-26T21:49:34.438Z,21.98
2022-11-26T21:54:37.503Z,29.13
2022-11-26T21:59:40.071Z,19.00
2022-11-26T22:04:42.394Z,17.08
2022-11-26T22:09:44.412Z,17.42
2022-11-26T22:14:47.431Z,28.23
2022-11-26T22:19:49.586Z,21.58
2022-11-26T22:24:51.877Z,22.65
2022-11-26T22:29:53.929Z,21.40
2022-11-26T22:34:55.974Z,23.42
2022-11-26T22:39:58.315Z,21.02
2022-11-26T22:45:00.491Z,19.23
2022-11-26T22:50:02.808Z,18.05
2022-11-26T22:55:05.329Z,19.63
2022-11-26T23:00:12.847Z,21.98
2022-11-26T23:05:15.252Z,15.77
2022-11-26T23:10:17.524Z,15.93
2022-11-26T23:15:19.736Z,16.60
2022-11-26T23:20:21.774Z,15.85
2022-11-26T23:25:23.861Z,15.18
2022-11-26T23:30:26.916Z,15.13
2022-11-26T23:35:29.462Z,16.98
2022-11-26T23:40:31.843Z,17.67
2022-11-26T23:45:33.943Z,15.70
2022-11-26T23:50:38.429Z,19.30
2022-11-26T23:55:59.761Z,17.15
